Time;durP1;ratioP1;P1;durP2;ratioP2;P2;SDS_P1;SDS_P2;PMS_P1;PMS_P2;Temp;Humidity;BMP_temperature;BMP_pressure;BME280_temperature;BME280_humidity;BME280_pressure;Samples;Min_cycle;Max_cycle;Signal;HPM_P1;HPM_P2
2023/12/01 00:01:09;;;;;;;14.23;12.70;;;4.70;60.70;;;;;;20779;6765;118570;-69
2023/12/01 00:03:44;;;;;;;14.30;12.57;;;4.60;61.00;;;;;;20854;6780;117576;-69
2023/12/01 00:06:20;;;;;;;13.60;12.30;;;4.50;61.30;;;;;;20719;6768;117625;-70
2023/12/01 00:08:56;;;;;;;21.27;19.27;;;4.50;61.60;;;;;;20536;6795;307031;-70
2023/12/01 00:11:31;;;;;;;16.27;14.67;;;4.70;61.80;;;;;;20889;6741;117347;-70
2023/12/01 00:14:07;;;;;;;21.33;19.37;;;4.80;61.40;;;;;;20686;6765;338103;-69
2023/12/01 00:16:42;;;;;;;23.60;21.20;;;5.00;61.70;;;;;;20505;6824;281427;-70
2023/12/01 00:19:18;;;;;;;24.90;22.70;;;5.40;61.20;;;;;;20560;6781;338434;-70
2023/12/01 00:21:54;;;;;;;19.17;17.20;;;5.70;60.60;;;;;;20826;6786;118016;-70
2023/12/01 00:24:29;;;;;;;27.83;23.67;;;5.60;60.10;;;;;;20474;6813;309691;-69
2023/12/01 00:27:05;;;;;;;19.57;17.13;;;5.70;60.20;;;;;;20676;6810;119550;-70
2023/12/01 00:29:40;;;;;;;31.13;24.67;;;5.60;60.00;;;;;;20617;6783;304449;-70
2023/12/01 00:32:16;;;;;;;18.93;16.23;;;5.60;60.30;;;;;;20795;6781;117475;-70
2023/12/01 00:34:52;;;;;;;28.80;23.57;;;5.50;60.20;;;;;;20587;6784;286543;-69
2023/12/01 00:37:27;;;;;;;29.77;24.83;;;5.60;60.50;;;;;;20584;6785;337316;-69
2023/12/01 00:40:06;;;;;;;54.47;23.00;;;5.80;60.10;;;;;;20717;6813;117616;-69
2023/12/01 00:42:38;;;;;;;31.93;23.33;;;5.80;60.00;;;;;;20737;6798;118043;-70
2023/12/01 00:45:15;;;;;;;42.07;27.47;;;5.50;60.30;;;;;;20697;6786;118625;-70
2023/12/01 00:47:50;;;;;;;279.40;38.17;;;5.30;60.90;;;;;;20768;6781;117884;-70
2023/12/01 00:50:25;;;;;;;143.62;33.05;;;5.10;61.50;;;;;;20376;6783;310281;-70
2023/12/01 00:53:01;;;;;;;415.73;43.00;;;5.20;61.70;;;;;;20578;6771;308140;-70
2023/12/01 00:55:39;;;;;;;69.50;35.10;;;5.50;61.10;;;;;;20400;6798;311372;-70
2023/12/01 00:58:13;;;;;;;29.93;21.63;;;5.70;60.10;;;;;;20753;6779;121201;-69
2023/12/01 01:00:48;;;;;;;23.53;17.40;;;5.60;60.00;;;;;;20837;6765;118301;-69
2023/12/01 01:03:24;;;;;;;31.50;25.17;;;5.40;60.60;;;;;;20573;6764;279205;-70
2023/12/01 01:06:00;;;;;;;21.00;17.40;;;5.50;60.80;;;;;;20711;6765;117839;-69
2023/12/01 01:08:35;;;;;;;27.10;24.07;;;5.40;60.70;;;;;;20639;6760;307318;-69
2023/12/01 01:11:11;;;;;;;29.00;25.95;;;5.50;60.90;;;;;;20546;6775;337265;-70
2023/12/01 01:13:46;;;;;;;27.87;24.97;;;5.70;60.60;;;;;;20607;6768;337538;-69
2023/12/01 01:16:22;;;;;;;26.58;23.87;;;6.00;60.20;;;;;;20429;6768;306527;-69
2023/12/01 01:18:58;;;;;;;50.83;30.37;;;6.10;59.80;;;;;;20799;6786;117478;-70
2023/12/01 01:21:33;;;;;;;27.17;21.60;;;5.90;59.70;;;;;;20768;6790;117593;-70
2023/12/01 01:24:09;;;;;;;27.47;20.30;;;5.70;60.30;;;;;;20847;6765;117468;-69
2023/12/01 01:26:45;;;;;;;29.30;26.20;;;5.40;61.30;;;;;;20460;6822;280471;-70
2023/12/01 01:29:21;;;;;;;19.87;17.53;;;5.40;61.30;;;;;;20736;6795;120912;-70
2023/12/01 01:31:56;;;;;;;25.15;22.67;;;5.40;60.90;;;;;;20671;6768;333179;-70
2023/12/01 01:34:32;;;;;;;20.87;17.63;;;5.50;60.80;;;;;;20802;6781;117724;-70
2023/12/01 01:37:08;;;;;;;24.47;21.90;;;5.40;60.40;;;;;;20602;6766;308236;-70
2023/12/01 01:39:44;;;;;;;18.73;16.73;;;5.40;60.50;;;;;;20852;6766;119722;-70
2023/12/01 01:42:20;;;;;;;24.33;21.93;;;5.40;59.70;;;;;;20636;6766;339595;-70
2023/12/01 01:44:56;;;;;;;19.47;16.33;;;5.30;59.20;;;;;;20804;6766;118745;-69
2023/12/01 01:47:32;;;;;;;24.40;22.00;;;5.30;59.20;;;;;;20600;6768;307491;-70
2023/12/01 01:50:07;;;;;;;23.52;21.23;;;5.30;59.60;;;;;;20607;6768;337298;-70
2023/12/01 01:52:44;;;;;;;27.50;24.60;;;5.70;58.90;;;;;;20585;6781;280573;-70
2023/12/01 01:55:19;;;;;;;25.37;22.77;;;5.70;58.90;;;;;;20524;6748;406549;-71
2023/12/01 01:57:56;;;;;;;17.97;15.97;;;5.60;58.20;;;;;;20730;6798;117994;-70
2023/12/01 02:00:32;;;;;;;23.48;21.17;;;5.60;58.10;;;;;;20582;6771;342170;-70
2023/12/01 02:03:07;;;;;;;16.97;15.37;;;5.60;58.80;;;;;;20743;6795;118324;-70
2023/12/01 02:05:42;;;;;;;21.35;19.45;;;5.40;58.80;;;;;;20441;6810;326013;-70
2023/12/01 02:08:21;;;;;;;17.73;15.93;;;5.40;58.80;;;;;;20868;6768;116283;-70
2023/12/01 02:10:57;;;;;;;21.93;19.97;;;5.20;58.60;;;;;;20625;6768;309712;-69
2023/12/01 02:13:35;;;;;;;22.90;20.60;;;5.20;58.70;;;;;;20614;6782;279454;-69
2023/12/01 02:16:08;;;;;;;17.40;15.67;;;5.40;58.30;;;;;;20637;6813;118150;-69
2023/12/01 02:18:44;;;;;;;21.70;19.67;;;5.20;58.30;;;;;;20614;6783;278534;-69
2023/12/01 02:21:20;;;;;;;17.37;15.50;;;5.20;58.30;;;;;;20772;6765;117262;-70
2023/12/01 02:23:56;;;;;;;15.37;13.83;;;5.00;58.30;;;;;;20803;6780;117482;-70
2023/12/01 02:26:33;;;;;;;21.90;19.77;;;4.80;58.90;;;;;;20522;6753;323680;-70
2023/12/01 02:29:08;;;;;;;22.60;20.40;;;5.00;59.30;;;;;;20636;6757;321138;-70
2023/12/01 02:31:43;;;;;;;22.75;20.60;;;5.00;59.10;;;;;;20605;6768;337252;-70
2023/12/01 02:34:23;;;;;;;22.37;20.37;;;5.20;58.20;;;;;;20540;6791;308059;-70
2023/12/01 02:36:59;;;;;;;17.50;15.70;;;5.20;58.30;;;;;;20778;6781;117400;-70
2023/12/01 02:39:36;;;;;;;15.57;14.03;;;5.20;58.30;;;;;;20848;6765;117998;-70
2023/12/01 02:42:09;;;;;;;20.40;18.50;;;4.90;59.10;;;;;;20626;6768;278250;-70
2023/12/01 02:44:45;;;;;;;21.10;19.20;;;4.90;59.70;;;;;;20556;6780;316422;-70
2023/12/01 02:47:21;;;;;;;20.47;18.67;;;5.10;59.60;;;;;;20640;6753;277736;-69
2023/12/01 02:49:57;;;;;;;20.77;18.87;;;5.50;59.00;;;;;;20703;6745;336977;-69
2023/12/01 02:52:33;;;;;;;15.27;13.87;;;5.50;59.00;;;;;;20805;6776;117364;-70
2023/12/01 02:55:08;;;;;;;19.55;17.80;;;5.30;59.00;;;;;;20526;6772;309489;-70
2023/12/01 02:57:44;;;;;;;15.17;13.77;;;5.30;59.10;;;;;;20833;6766;117562;-70
2023/12/01 03:00:20;;;;;;;13.93;12.60;;;5.20;59.20;;;;;;20847;6766;117387;-70
2023/12/01 03:02:58;;;;;;;13.53;12.27;;;4.90;59.50;;;;;;20853;6766;119522;-70
2023/12/01 03:05:31;;;;;;;13.47;12.23;;;4.60;59.80;;;;;;20747;6765;117758;-70
2023/12/01 03:08:06;;;;;;;19.80;17.97;;;4.40;60.30;;;;;;20667;6751;307363;-70
2023/12/01 03:10:42;;;;;;;15.77;14.10;;;4.50;60.50;;;;;;20902;6751;118331;-70
2023/12/01 03:13:18;;;;;;;21.03;19.13;;;4.60;60.40;;;;;;20617;6751;307600;-70
2023/12/01 03:15:53;;;;;;;15.83;14.13;;;4.70;60.10;;;;;;20735;6766;118262;-69
2023/12/01 03:18:29;;;;;;;20.57;18.67;;;4.60;59.70;;;;;;20604;6781;278903;-69
2023/12/01 03:21:12;;;;;;;20.53;18.73;;;4.70;59.90;;;;;;20563;6768;330265;-71
2023/12/01 03:23:41;;;;;;;21.90;20.00;;;5.20;59.20;;;;;;20632;6782;306978;-70
2023/12/01 03:26:16;;;;;;;60.50;33.17;;;5.20;59.20;;;;;;20709;6783;119189;-69
2023/12/01 03:28:52;;;;;;;39.37;31.93;;;5.10;59.10;;;;;;20610;6795;278188;-69
2023/12/01 03:31:27;;;;;;;54.63;43.93;;;5.10;59.40;;;;;;20513;6798;279897;-69
2023/12/01 03:34:04;;;;;;;23.27;20.10;;;5.20;59.10;;;;;;20806;6795;117326;-69
2023/12/01 03:36:39;;;;;;;20.17;18.27;;;5.20;59.10;;;;;;20536;6766;338227;-69
2023/12/01 03:39:14;;;;;;;18.77;16.77;;;5.10;59.40;;;;;;20949;6738;118484;-69
2023/12/01 03:41:50;;;;;;;21.37;19.37;;;5.00;59.30;;;;;;20768;6738;307944;-69
2023/12/01 03:44:26;;;;;;;23.33;21.23;;;5.00;59.20;;;;;;20671;6765;292659;-70
2023/12/01 03:47:03;;;;;;;16.43;14.83;;;5.10;58.30;;;;;;20951;6738;117487;-70
2023/12/01 03:49:39;;;;;;;22.42;20.42;;;5.10;58.30;;;;;;20775;6738;276780;-69
2023/12/01 03:52:15;;;;;;;21.95;20.05;;;5.10;58.60;;;;;;20770;6738;279491;-69
2023/12/01 03:54:50;;;;;;;18.07;16.13;;;5.20;58.20;;;;;;20946;6738;117720;-69
2023/12/01 03:57:29;;;;;;;22.70;20.53;;;5.10;58.30;;;;;;20741;6738;304270;-68
2023/12/01 04:00:08;;;;;;;21.57;19.67;;;5.10;58.70;;;;;;20766;6738;307026;-69
2023/12/01 04:02:43;;;;;;;17.40;15.80;;;5.20;58.20;;;;;;20992;6738;119746;-69
2023/12/01 04:05:20;;;;;;;16.67;14.93;;;5.10;58.50;;;;;;20808;6757;117835;-69
2023/12/01 04:07:54;;;;;;;20.27;18.55;;;4.80;59.20;;;;;;20669;6766;337921;-69
2023/12/01 04:10:30;;;;;;;17.63;14.77;;;4.80;59.60;;;;;;20983;6738;116329;-68
2023/12/01 04:13:07;;;;;;;15.57;13.27;;;4.80;59.60;;;;;;20961;6738;126029;-70
2023/12/01 04:15:41;;;;;;;15.53;13.77;;;4.60;60.00;;;;;;20849;6738;118083;-70
2023/12/01 04:18:17;;;;;;;18.53;16.93;;;4.40;60.60;;;;;;20676;6766;307532;-69
2023/12/01 04:20:52;;;;;;;14.60;13.20;;;4.50;60.50;;;;;;20899;6766;118547;-68
2023/12/01 04:23:29;;;;;;;19.23;17.62;;;4.50;60.00;;;;;;20669;6765;337212;-68
2023/12/01 04:26:06;;;;;;;14.40;13.10;;;4.60;60.00;;;;;;20814;6738;118662;-68
2023/12/01 04:28:41;;;;;;;18.93;17.33;;;4.60;59.70;;;;;;20763;6738;305978;-68
2023/12/01 04:31:16;;;;;;;19.43;17.80;;;4.70;59.80;;;;;;20750;6738;277139;-69
2023/12/01 04:33:52;;;;;;;18.10;16.60;;;4.90;59.10;;;;;;20784;6738;276839;-68
2023/12/01 04:36:28;;;;;;;20.20;18.50;;;5.30;58.00;;;;;;20568;6738;326138;-68
2023/12/01 04:39:04;;;;;;;15.03;13.63;;;5.10;57.90;;;;;;20959;6738;118366;-69
2023/12/01 04:41:40;;;;;;;19.17;17.53;;;5.00;57.80;;;;;;20780;6738;338070;-67
2023/12/01 04:44:16;;;;;;;14.63;13.40;;;4.80;58.90;;;;;;20999;6738;118365;-69
2023/12/01 04:46:53;;;;;;;19.95;18.23;;;4.90;58.70;;;;;;20706;6765;306397;-69
2023/12/01 04:49:28;;;;;;;24.52;22.42;;;4.80;58.60;;;;;;20765;6738;304893;-69
2023/12/01 04:52:04;;;;;;;22.58;20.65;;;5.00;58.30;;;;;;20771;6738;276850;-68
2023/12/01 04:54:40;;;;;;;24.25;22.02;;;5.20;57.90;;;;;;20746;6738;278620;-69
2023/12/01 04:57:17;;;;;;;16.57;14.97;;;5.30;57.80;;;;;;20906;6738;118949;-68
2023/12/01 04:59:56;;;;;;;24.83;22.13;;;5.00;57.70;;;;;;20937;6738;118192;-67
2023/12/01 05:02:26;;;;;;;42.60;38.20;;;4.70;58.30;;;;;;20651;6765;277857;-67
2023/12/01 05:05:03;;;;;;;22.48;20.48;;;4.70;59.20;;;;;;20648;6738;338406;-68
2023/12/01 05:07:38;;;;;;;21.17;19.40;;;4.90;59.30;;;;;;20672;6766;330391;-67
2023/12/01 05:10:16;;;;;;;21.58;19.77;;;5.10;59.10;;;;;;20723;6738;306745;-68
2023/12/01 05:12:54;;;;;;;26.60;24.20;;;5.40;58.40;;;;;;20650;6766;304306;-68
2023/12/01 05:15:31;;;;;;;35.05;31.75;;;5.40;58.40;;;;;;20667;6738;279804;-68
2023/12/01 05:18:07;;;;;;;41.10;36.92;;;5.50;58.00;;;;;;20673;6766;278217;-68
2023/12/01 05:20:40;;;;;;;22.43;20.03;;;5.60;57.50;;;;;;20804;6738;117711;-67
2023/12/01 05:23:15;;;;;;;26.03;23.63;;;5.30;57.60;;;;;;20761;6738;276537;-68
2023/12/01 05:25:51;;;;;;;25.27;22.97;;;5.20;58.20;;;;;;20647;6738;308712;-68
2023/12/01 05:28:26;;;;;;;55.77;28.40;;;5.30;57.90;;;;;;20664;6738;276428;-68
2023/12/01 05:31:03;;;;;;;25.37;22.60;;;5.10;57.20;;;;;;20812;6783;117845;-68
2023/12/01 05:33:38;;;;;;;35.03;26.23;;;5.10;57.20;;;;;;20896;6766;119425;-68
2023/12/01 05:36:15;;;;;;;17.50;15.13;;;4.70;57.80;;;;;;20745;6766;121599;-67
2023/12/01 05:38:49;;;;;;;15.60;14.00;;;4.40;58.80;;;;;;20841;6780;117358;-68
2023/12/01 05:41:25;;;;;;;30.17;22.30;;;4.10;59.00;;;;;;20604;6780;307789;-68
2023/12/01 05:44:02;;;;;;;49.17;25.20;;;4.20;59.60;;;;;;20636;6780;308215;-68
2023/12/01 05:46:39;;;;;;;25.57;22.97;;;4.40;59.30;;;;;;20509;6780;281524;-67
2023/12/01 05:49:14;;;;;;;24.77;22.37;;;4.80;58.50;;;;;;20673;6765;277835;-68
2023/12/01 05:51:48;;;;;;;17.67;15.97;;;4.80;58.50;;;;;;20916;6765;68252;-67
2023/12/01 05:54:24;;;;;;;16.17;14.67;;;4.40;59.30;;;;;;20899;6765;67365;-68
2023/12/01 05:57:00;;;;;;;14.30;12.90;;;4.40;59.30;;;;;;20908;6765;68764;-67
2023/12/01 05:59:38;;;;;;;20.37;18.58;;;4.20;60.00;;;;;;20652;6765;306791;-69
2023/12/01 06:02:11;;;;;;;14.93;13.57;;;4.30;60.70;;;;;;20849;6765;114760;-68
2023/12/01 06:04:47;;;;;;;19.70;18.00;;;4.30;60.60;;;;;;20535;6798;283124;-69
2023/12/01 06:07:22;;;;;;;19.70;18.03;;;4.40;60.70;;;;;;20539;6798;308844;-69
2023/12/01 06:09:59;;;;;;;13.83;12.60;;;4.60;59.80;;;;;;20742;6795;117483;-69
2023/12/01 06:12:37;;;;;;;12.40;11.33;;;4.30;60.00;;;;;;20771;6781;117499;-68
2023/12/01 06:15:14;;;;;;;12.43;11.37;;;4.30;60.00;;;;;;20708;6786;118879;-68
2023/12/01 06:17:50;;;;;;;18.40;16.90;;;4.10;60.60;;;;;;20611;6765;307367;-69
2023/12/01 06:20:25;;;;;;;18.75;17.25;;;4.20;61.10;;;;;;20242;6796;314729;-69
2023/12/01 06:23:01;;;;;;;14.00;12.80;;;4.50;60.60;;;;;;20628;6846;117369;-70
2023/12/01 06:25:37;;;;;;;12.43;11.40;;;4.50;60.20;;;;;;20698;6783;117925;-69
2023/12/01 06:28:12;;;;;;;12.47;11.43;;;4.30;60.60;;;;;;20768;6780;119577;-69
2023/12/01 06:30:48;;;;;;;12.20;11.17;;;4.10;61.20;;;;;;20835;6768;118396;-68
2023/12/01 06:33:26;;;;;;;16.30;14.90;;;4.00;61.80;;;;;;20568;6798;281755;-69
2023/12/01 06:35:59;;;;;;;16.97;15.57;;;4.10;62.00;;;;;;20417;6795;282299;-67
2023/12/01 06:38:35;;;;;;;16.33;15.13;;;4.50;60.80;;;;;;20534;6786;283305;-67
2023/12/01 06:41:10;;;;;;;17.40;16.10;;;4.70;60.00;;;;;;20599;6786;307436;-68
2023/12/01 06:43:46;;;;;;;15.73;14.53;;;5.00;59.60;;;;;;20635;6781;310017;-67
2023/12/01 06:46:22;;;;;;;11.37;9.17;;;5.00;59.10;;;;;;20639;6781;117880;-67
2023/12/01 06:48:58;;;;;;;12.10;11.03;;;5.00;59.10;;;;;;20780;6796;117653;-67
2023/12/01 06:51:34;;;;;;;15.37;14.20;;;4.80;60.40;;;;;;20465;6810;334803;-68
2023/12/01 06:54:10;;;;;;;11.53;10.63;;;4.80;60.10;;;;;;20776;6810;119126;-68
2023/12/01 06:56:45;;;;;;;10.40;9.50;;;4.80;59.80;;;;;;20586;6854;117885;-67
2023/12/01 06:59:21;;;;;;;10.27;9.37;;;4.50;60.00;;;;;;20811;6771;122001;-67
2023/12/01 07:01:56;;;;;;;10.17;9.33;;;4.30;60.50;;;;;;20782;6795;117282;-67
2023/12/01 07:04:32;;;;;;;14.93;13.70;;;4.10;61.00;;;;;;20537;6790;337122;-67
2023/12/01 07:07:08;;;;;;;14.20;11.13;;;4.30;61.10;;;;;;20923;6747;117614;-67
2023/12/01 07:09:44;;;;;;;11.80;10.70;;;4.30;61.10;;;;;;20900;6762;119442;-67
2023/12/01 07:12:21;;;;;;;11.47;10.47;;;4.00;61.70;;;;;;20856;6762;117677;-67
2023/12/01 07:14:56;;;;;;;15.52;14.32;;;4.00;61.70;;;;;;20636;6762;337777;-68
2023/12/01 07:17:31;;;;;;;16.70;15.40;;;4.20;62.00;;;;;;20525;6790;334902;-68
2023/12/01 07:20:14;;;;;;;13.00;11.90;;;4.50;60.90;;;;;;20876;6762;117276;-69
2023/12/01 07:22:44;;;;;;;12.27;11.07;;;4.50;60.90;;;;;;20761;6805;117834;-68
2023/12/01 07:25:23;;;;;;;15.30;14.10;;;4.50;61.40;;;;;;20509;6777;461833;-68
2023/12/01 07:27:58;;;;;;;15.13;13.77;;;4.50;61.40;;;;;;20769;6783;119027;-68
2023/12/01 07:30:34;;;;;;;11.80;10.70;;;4.50;61.20;;;;;;20813;6771;117978;-68
2023/12/01 07:33:10;;;;;;;15.60;14.40;;;4.50;61.50;;;;;;20557;6780;330602;-67
2023/12/01 07:35:46;;;;;;;13.57;12.27;;;4.50;61.50;;;;;;20738;6766;117727;-67
2023/12/01 07:38:21;;;;;;;15.93;14.63;;;4.50;61.10;;;;;;20563;6781;310001;-68
2023/12/01 07:40:58;;;;;;;12.13;11.00;;;4.60;60.80;;;;;;20795;6781;118512;-68
2023/12/01 07:43:33;;;;;;;10.50;9.60;;;4.60;61.40;;;;;;20786;6780;118342;-68
2023/12/01 07:46:09;;;;;;;14.73;13.63;;;4.50;61.00;;;;;;20512;6768;278893;-68
2023/12/01 07:48:45;;;;;;;10.77;9.87;;;4.60;60.80;;;;;;20920;6738;117435;-69
2023/12/01 07:51:20;;;;;;;10.93;10.03;;;4.50;60.60;;;;;;20903;6738;117231;-68
2023/12/01 07:53:56;;;;;;;10.83;9.83;;;4.40;61.00;;;;;;20892;6751;119729;-68
2023/12/01 07:56:31;;;;;;;10.83;9.90;;;4.20;61.50;;;;;;20645;6761;118063;-68
2023/12/01 07:59:10;;;;;;;12.20;11.10;;;4.10;62.00;;;;;;20798;6768;119276;-68
2023/12/01 08:01:43;;;;;;;10.67;9.77;;;4.00;62.70;;;;;;20808;6779;118585;-68
2023/12/01 08:04:19;;;;;;;10.17;9.17;;;4.00;63.30;;;;;;20812;6668;118256;-69
2023/12/01 08:06:57;;;;;;;18.07;16.37;;;3.90;63.00;;;;;;20667;6751;307275;-69
2023/12/01 08:09:33;;;;;;;14.40;12.90;;;4.30;62.40;;;;;;20923;6737;119401;-69
2023/12/01 08:12:10;;;;;;;12.00;10.80;;;4.20;62.50;;;;;;20891;6765;116392;-69
2023/12/01 08:14:45;;;;;;;16.60;14.85;;;4.20;62.50;;;;;;20641;6765;300011;-69
2023/12/01 08:17:22;;;;;;;20.10;18.30;;;4.80;61.50;;;;;;20593;6780;336934;-69
2023/12/01 08:19:57;;;;;;;80.93;26.13;;;4.70;61.40;;;;;;20628;6780;308272;-69
2023/12/01 08:22:46;;;;;;;51.17;21.17;;;5.00;60.20;;;;;;20633;6780;278356;-69
2023/12/01 08:25:10;;;;;;;55.93;24.17;;;5.30;59.60;;;;;;20767;6780;127501;-69
2023/12/01 08:27:45;;;;;;;104.63;26.37;;;5.20;59.60;;;;;;20882;6765;118721;-68
2023/12/01 08:30:21;;;;;;;84.15;25.65;;;4.90;60.10;;;;;;20665;6765;337901;-69
2023/12/01 08:32:57;;;;;;;20.00;17.03;;;4.90;60.10;;;;;;20877;6765;117574;-68
2023/12/01 08:35:32;;;;;;;48.03;20.27;;;4.90;60.10;;;;;;20564;6765;339353;-68
2023/12/01 08:38:10;;;;;;;18.83;15.10;;;5.00;60.10;;;;;;20878;6765;117351;-68
2023/12/01 08:40:43;;;;;;;20.90;18.85;;;4.90;59.90;;;;;;20671;6765;336765;-68
2023/12/01 08:43:19;;;;;;;20.77;19.05;;;5.00;60.00;;;;;;20664;6765;336342;-68
2023/12/01 08:45:57;;;;;;;98.27;16.03;;;5.20;59.30;;;;;;20765;6766;119413;-68
2023/12/01 08:48:32;;;;;;;21.07;16.93;;;5.20;59.30;;;;;;20883;6766;117268;-68
2023/12/01 08:51:08;;;;;;;17.27;15.10;;;4.90;59.60;;;;;;20875;6766;119373;-68
2023/12/01 08:53:43;;;;;;;15.63;14.13;;;4.70;60.10;;;;;;20899;6766;117357;-67
2023/12/01 08:56:19;;;;;;;14.60;13.13;;;4.60;60.70;;;;;;20726;6766;118174;-67
2023/12/01 08:58:55;;;;;;;20.20;18.48;;;4.50;61.20;;;;;;20654;6766;336500;-68
2023/12/01 09:01:30;;;;;;;14.30;13.00;;;4.60;61.30;;;;;;20888;6765;117483;-68
2023/12/01 09:04:06;;;;;;;13.10;12.00;;;4.70;61.00;;;;;;20893;6766;118381;-68
2023/12/01 09:06:41;;;;;;;19.80;17.80;;;4.60;61.00;;;;;;20465;6837;280645;-68
2023/12/01 09:09:17;;;;;;;14.47;12.80;;;4.70;60.60;;;;;;20861;6766;118515;-68
2023/12/01 09:11:56;;;;;;;17.98;16.48;;;4.80;60.40;;;;;;20682;6766;333383;-68
2023/12/01 09:14:31;;;;;;;17.30;15.80;;;4.90;60.60;;;;;;20666;6766;337196;-68
2023/12/01 09:17:04;;;;;;;18.87;17.33;;;5.20;59.80;;;;;;20648;6766;280560;-67
2023/12/01 09:19:40;;;;;;;15.03;13.63;;;5.50;59.20;;;;;;20893;6766;117445;-68
2023/12/01 09:22:16;;;;;;;13.60;12.30;;;5.20;59.20;;;;;;20853;6780;118897;-66
2023/12/01 09:24:51;;;;;;;12.20;11.10;;;5.20;59.20;;;;;;20789;6786;117161;-68
2023/12/01 09:27:29;;;;;;;11.70;10.50;;;5.00;59.70;;;;;;20875;6764;122535;-68
2023/12/01 09:30:08;;;;;;;11.33;10.33;;;4.80;60.00;;;;;;20895;6764;117742;-67
2023/12/01 09:32:43;;;;;;;16.30;14.90;;;4.70;60.60;;;;;;20639;6779;307148;-68
2023/12/01 09:35:19;;;;;;;13.17;11.97;;;4.80;60.40;;;;;;20763;6779;118745;-68
2023/12/01 09:37:55;;;;;;;11.67;10.57;;;4.90;60.10;;;;;;20890;6764;120153;-68
2023/12/01 09:40:30;;;;;;;16.10;14.80;;;4.70;60.30;;;;;;20634;6779;307564;-68
2023/12/01 09:43:06;;;;;;;12.53;11.33;;;4.80;60.00;;;;;;20825;6783;117998;-67
2023/12/01 09:45:42;;;;;;;16.70;15.00;;;4.90;59.60;;;;;;20760;6768;119411;-68
2023/12/01 09:48:14;;;;;;;12.50;11.40;;;4.70;59.90;;;;;;20831;6783;120150;-68
2023/12/01 09:50:49;;;;;;;10.77;9.90;;;4.60;60.20;;;;;;20735;6798;117779;-68
2023/12/01 09:53:25;;;;;;;16.10;14.80;;;4.50;60.70;;;;;;20605;6783;307731;-68
2023/12/01 09:56:04;;;;;;;13.37;12.13;;;4.70;61.00;;;;;;20670;6798;117725;-68
2023/12/01 09:58:37;;;;;;;16.35;15.05;;;4.90;60.50;;;;;;20671;6766;336226;-68
2023/12/01 10:01:17;;;;;;;14.03;12.73;;;4.90;60.50;;;;;;20865;6767;117605;-68
2023/12/01 10:03:54;;;;;;;17.30;15.80;;;4.90;60.30;;;;;;20683;6767;277921;-68
2023/12/01 10:06:27;;;;;;;17.40;16.00;;;5.10;60.50;;;;;;20512;6767;282009;-68
2023/12/01 10:09:03;;;;;;;14.80;13.40;;;5.40;59.80;;;;;;20901;6752;143543;-68
2023/12/01 10:11:41;;;;;;;19.13;17.53;;;5.40;59.80;;;;;;20661;6766;328866;-67
2023/12/01 10:14:17;;;;;;;20.33;18.60;;;5.50;59.30;;;;;;20631;6768;308013;-69
2023/12/01 10:16:50;;;;;;;15.27;13.67;;;5.70;58.10;;;;;;20939;6751;119201;-68
2023/12/01 10:19:28;;;;;;;17.30;15.73;;;5.60;58.20;;;;;;20697;6751;289729;-68
2023/12/01 10:22:04;;;;;;;17.80;16.30;;;5.70;58.10;;;;;;20662;6768;307601;-67
2023/12/01 10:24:39;;;;;;;17.95;16.35;;;5.80;57.20;;;;;;20672;6764;310732;-68
2023/12/01 10:27:13;;;;;;;17.70;16.27;;;6.10;56.60;;;;;;20599;6783;307734;-69
2023/12/01 10:29:49;;;;;;;16.77;15.38;;;6.20;56.00;;;;;;20625;6783;308572;-68
2023/12/01 10:32:25;;;;;;;14.03;12.73;;;6.10;55.90;;;;;;20849;6782;117194;-68
2023/12/01 10:35:02;;;;;;;11.73;10.63;;;5.90;55.90;;;;;;20801;6783;117073;-71
2023/12/01 10:37:36;;;;;;;11.27;10.37;;;5.60;56.70;;;;;;20870;6768;117355;-67
2023/12/01 10:40:15;;;;;;;11.53;10.40;;;5.20;57.30;;;;;;20853;6768;117916;-68
2023/12/01 10:42:47;;;;;;;14.10;12.90;;;5.00;58.20;;;;;;20665;6765;307949;-68
2023/12/01 10:45:24;;;;;;;11.73;10.73;;;5.00;58.70;;;;;;20728;6765;119915;-68
2023/12/01 10:48:02;;;;;;;14.02;12.88;;;5.00;58.70;;;;;;20643;6775;337256;-68
2023/12/01 10:50:37;;;;;;;15.70;14.30;;;5.20;58.90;;;;;;20777;6760;337208;-67
2023/12/01 10:53:13;;;;;;;10.33;9.47;;;5.40;58.80;;;;;;20859;6778;117676;-68
2023/12/01 10:55:46;;;;;;;8.93;8.23;;;5.40;58.10;;;;;;20718;6778;119113;-68
2023/12/01 10:58:22;;;;;;;13.30;12.23;;;5.10;58.30;;;;;;20625;6778;307287;-68
2023/12/01 11:01:01;;;;;;;11.70;10.70;;;5.10;58.70;;;;;;20838;6781;117276;-68
2023/12/01 11:03:37;;;;;;;10.73;9.83;;;5.10;58.70;;;;;;20793;6795;117629;-68
2023/12/01 11:06:10;;;;;;;11.97;10.70;;;4.80;59.60;;;;;;20666;6780;118228;-68
2023/12/01 11:08:59;;;;;;;12.30;11.10;;;4.80;59.60;;;;;;20879;6766;118530;-68
2023/12/01 11:11:45;;;;;;;16.80;15.40;;;4.70;59.80;;;;;;20630;6780;303347;-68
2023/12/01 11:14:24;;;;;;;12.80;11.60;;;4.80;59.80;;;;;;20785;6783;117419;-68
2023/12/01 11:16:59;;;;;;;11.80;10.70;;;4.80;59.60;;;;;;20914;6757;117702;-68
2023/12/01 11:19:41;;;;;;;15.82;14.45;;;4.60;59.90;;;;;;20575;6798;309080;-67
2023/12/01 11:22:27;;;;;;;12.03;10.93;;;4.80;60.10;;;;;;20790;6798;119138;-67
2023/12/01 11:25:05;;;;;;;11.10;10.10;;;4.90;59.90;;;;;;20725;6796;118985;-68
2023/12/01 11:27:38;;;;;;;14.73;13.43;;;4.70;60.00;;;;;;20577;6780;278407;-67
2023/12/01 11:30:16;;;;;;;11.73;10.63;;;4.90;59.70;;;;;;20824;6768;118203;-66
2023/12/01 11:32:52;;;;;;;10.23;9.23;;;4.90;59.70;;;;;;20767;6794;117329;-67
2023/12/01 11:35:26;;;;;;;14.38;13.07;;;4.70;59.40;;;;;;20525;6766;310613;-67
2023/12/01 11:38:05;;;;;;;10.90;9.90;;;4.80;59.20;;;;;;20819;6771;117540;-67
2023/12/01 11:40:40;;;;;;;10.77;9.27;;;4.80;59.20;;;;;;20865;6771;118591;-67
2023/12/01 11:43:15;;;;;;;14.37;13.17;;;4.70;59.60;;;;;;20656;6772;279563;-67
2023/12/01 11:45:51;;;;;;;14.40;13.30;;;4.90;60.20;;;;;;20527;6756;310564;-67
2023/12/01 11:48:27;;;;;;;11.90;10.70;;;5.20;59.70;;;;;;20872;6771;117336;-67
2023/12/01 11:51:04;;;;;;;14.83;13.43;;;5.30;59.00;;;;;;20588;6771;307336;-67
2023/12/01 11:53:39;;;;;;;15.02;13.73;;;5.30;59.00;;;;;;20583;6795;337301;-67
2023/12/01 11:56:18;;;;;;;15.25;13.95;;;5.70;57.60;;;;;;20418;6795;311668;-67
2023/12/01 11:58:51;;;;;;;12.40;11.20;;;5.60;57.50;;;;;;20877;6771;118288;-68
2023/12/01 12:01:27;;;;;;;15.43;14.13;;;5.50;57.60;;;;;;20556;6771;309262;-67
2023/12/01 12:04:04;;;;;;;15.77;14.38;;;5.60;57.20;;;;;;20567;6783;310055;-68
2023/12/01 12:06:41;;;;;;;16.53;15.03;;;5.60;57.10;;;;;;20374;6804;281305;-68
2023/12/01 12:09:19;;;;;;;15.52;14.23;;;5.70;56.80;;;;;;20598;6765;307831;-68
2023/12/01 12:11:55;;;;;;;15.47;14.17;;;5.80;56.20;;;;;;20620;6765;279733;-68
2023/12/01 12:14:31;;;;;;;12.03;11.03;;;5.90;56.00;;;;;;20831;6765;117468;-67
2023/12/01 12:17:07;;;;;;;9.67;8.87;;;5.60;56.40;;;;;;20758;6780;117999;-66
2023/12/01 12:19:46;;;;;;;17.00;15.53;;;5.30;60.00;;;;;;20618;6771;279260;-68
2023/12/01 12:22:19;;;;;;;14.53;12.43;;;5.30;60.00;;;;;;20796;6780;118688;-67
2023/12/01 12:24:54;;;;;;;16.27;14.87;;;5.30;59.90;;;;;;20547;6777;334211;-68
2023/12/01 12:27:38;;;;;;;11.10;10.10;;;5.40;60.30;;;;;;20777;6777;117835;-68
2023/12/01 12:30:13;;;;;;;15.10;13.90;;;5.40;60.00;;;;;;20581;6776;278808;-68
2023/12/01 12:32:51;;;;;;;11.70;10.70;;;5.50;60.80;;;;;;20836;6768;117527;-68
2023/12/01 12:35:27;;;;;;;14.63;13.53;;;5.60;60.80;;;;;;20503;6777;280194;-68
2023/12/01 12:38:00;;;;;;;14.33;13.23;;;5.70;62.80;;;;;;20587;6777;328606;-68
2023/12/01 12:40:35;;;;;;;12.13;11.23;;;6.10;63.20;;;;;;20586;6777;307443;-67
2023/12/01 12:43:11;;;;;;;10.43;9.53;;;6.40;60.80;;;;;;20790;6777;117863;-67
2023/12/01 12:45:53;;;;;;;9.47;8.67;;;6.00;61.40;;;;;;20686;6776;118175;-68
2023/12/01 12:48:29;;;;;;;9.30;8.50;;;5.90;61.30;;;;;;20795;6776;117560;-68
2023/12/01 12:51:05;;;;;;;15.37;10.53;;;5.80;62.10;;;;;;20790;6768;117298;-68
2023/12/01 12:53:37;;;;;;;14.47;13.07;;;5.60;62.50;;;;;;20570;6776;333908;-67
2023/12/01 12:56:13;;;;;;;13.82;12.52;;;6.00;60.90;;;;;;20428;6786;339782;-67
2023/12/01 12:58:59;;;;;;;10.97;9.87;;;6.00;60.80;;;;;;20757;6800;118904;-67
2023/12/01 13:01:33;;;;;;;13.55;12.35;;;5.90;59.60;;;;;;20562;6780;309253;-67
2023/12/01 13:04:07;;;;;;;10.20;9.40;;;6.00;61.00;;;;;;20852;6768;117481;-67
2023/12/01 13:06:43;;;;;;;11.73;10.80;;;5.90;60.00;;;;;;20409;6837;339608;-67
2023/12/01 13:09:21;;;;;;;10.57;9.50;;;5.90;59.90;;;;;;20745;6780;145624;-67
2023/12/01 13:11:54;;;;;;;12.70;11.70;;;5.90;60.50;;;;;;20673;6759;308093;-67